No particular awareness of the weather is required.    There are no Weather-warnings


Meteo18 Weather Cam more information Meteo18 Weather Cam


Thunder radar more information blitzortung!


Rain radar more information rain snow radar


Visit our other weather sites:

Template documentation
and downloads

And another site



Weather Underground History page Text

Daily Summary for May 22, 2017 Units:  Both    English   Metric
« Previous Day
Next Day »
Daily Weekly Monthly Yearly Custom
  High: Low: Average:
Temperature: 79.9 °F /  26.6 °C 49.3 °F /  9.6 °C 66 °F /  18.9 °C
Dew Point: 61 °F /  16.1 °C 45.7 °F /  7.6 °C 53.1 °F /  11.7 °C
Humidity: 88 % 37 % 66 %
Wind Speed: 8 mph /  12.9 km/h - 1.8 mph /  2.9 km/h
Wind Gust: 11 mph /  17.7 km/h - -
Wind:- - SSW
Pressure: 30.1 in /  1019.5 hPa 30 in /  1016.5 hPa -
Precipitation: 0 in /  0.0 mm    
Historical Graphs
 
 
Tabular Data for May 22, 2017
Time Temperature Dew Point Pressure Wind Wind Speed Wind Gust Humidity Rainfall Rate (Hourly)
00:02 57.9 °F /  14.4 °C 49.3 °F /  9.6 °C 30.1 in /  1019.5 hPa ENE 2 mph /  3.2 km/h 4 mph /  6.4 km/h 73 % 0 in /  0.0 mm
00:07 57.7 °F /  14.3 °C 49.1 °F /  9.5 °C 30.1 in /  1019.5 hPa Calm   4 mph /  6.4 km/h 73 % 0 in /  0.0 mm
00:12 57.6 °F /  14.2 °C 48.9 °F /  9.4 °C 30.1 in /  1019.5 hPa NE 1 mph /  1.6 km/h 4 mph /  6.4 km/h 73 % 0 in /  0.0 mm
00:17 57.4 °F /  14.1 °C 49.1 °F /  9.5 °C 30.1 in /  1019.2 hPa NE 1 mph /  1.6 km/h 4 mph /  6.4 km/h 74 % 0 in /  0.0 mm
00:22 57 °F /  13.9 °C 49.1 °F /  9.5 °C 30.1 in /  1019.2 hPa Calm   3 mph /  4.8 km/h 75 % 0 in /  0.0 mm
00:27 56.8 °F /  13.8 °C 48.9 °F /  9.4 °C 30.1 in /  1019.2 hPa NE 1 mph /  1.6 km/h 3 mph /  4.8 km/h 75 % 0 in /  0.0 mm
00:32 56.8 °F /  13.8 °C 48.9 °F /  9.4 °C 30.1 in /  1019.2 hPa NE 2 mph /  3.2 km/h 2 mph /  3.2 km/h 75 % 0 in /  0.0 mm
00:37 57 °F /  13.9 °C 49.1 °F /  9.5 °C 30.1 in /  1019.2 hPa Calm   2 mph /  3.2 km/h 75 % 0 in /  0.0 mm
00:42 56.8 °F /  13.8 °C 48.9 °F /  9.4 °C 30.1 in /  1019.2 hPa NE 1 mph /  1.6 km/h 3 mph /  4.8 km/h 75 % 0 in /  0.0 mm
00:52 56.5 °F /  13.6 °C 48.9 °F /  9.4 °C 30.1 in /  1019.2 hPa NE 1 mph /  1.6 km/h 3 mph /  4.8 km/h 76 % 0 in /  0.0 mm
00:57 56.1 °F /  13.4 °C 48.7 °F /  9.3 °C 30.1 in /  1018.8 hPa NE 1 mph /  1.6 km/h 3 mph /  4.8 km/h 76 % 0 in /  0.0 mm
01:02 56.1 °F /  13.4 °C 48.7 °F /  9.3 °C 30.1 in /  1018.8 hPa ENE 1 mph /  1.6 km/h 3 mph /  4.8 km/h 76 % 0 in /  0.0 mm
01:12 55.8 °F /  13.2 °C 48.4 °F /  9.1 °C 30.1 in /  1018.8 hPa Calm   3 mph /  4.8 km/h 76 % 0 in /  0.0 mm
01:17 54.9 °F /  12.7 °C 48.2 °F /  9.0 °C 30.1 in /  1018.8 hPa WNW 1 mph /  1.6 km/h 3 mph /  4.8 km/h 78 % 0 in /  0.0 mm
01:22 54.7 °F /  12.6 °C 48.4 °F /  9.1 °C 30.1 in /  1018.8 hPa Calm   3 mph /  4.8 km/h 79 % 0 in /  0.0 mm
01:32 54.7 °F /  12.6 °C 48.4 °F /  9.1 °C 30.1 in /  1018.8 hPa Calm   1 mph /  1.6 km/h 79 % 0 in /  0.0 mm
01:37 54.1 °F /  12.3 °C 47.8 °F /  8.8 °C 30.1 in /  1018.8 hPa Calm   1 mph /  1.6 km/h 79 % 0 in /  0.0 mm
01:42 53.4 °F /  11.9 °C 47.7 °F /  8.7 °C 30.1 in /  1018.8 hPa WNW 1 mph /  1.6 km/h 1 mph /  1.6 km/h 81 % 0 in /  0.0 mm
01:52 53.1 °F /  11.7 °C 48 °F /  8.9 °C 30.1 in /  1018.5 hPa Calm   1 mph /  1.6 km/h 83 % 0 in /  0.0 mm
01:57 52.7 °F /  11.5 °C 47.7 °F /  8.7 °C 30.1 in /  1018.5 hPa Calm   1 mph /  1.6 km/h 83 % 0 in /  0.0 mm
02:02 52 °F /  11.1 °C 47.7 °F /  8.7 °C 30.1 in /  1018.5 hPa Calm   1 mph /  1.6 km/h 85 % 0 in /  0.0 mm
02:12 52.3 °F /  11.3 °C 48 °F /  8.9 °C 30.1 in /  1018.5 hPa Calm   1 mph /  1.6 km/h 85 % 0 in /  0.0 mm
02:17 52.3 °F /  11.3 °C 47.7 °F /  8.7 °C 30.1 in /  1018.5 hPa Calm   1 mph /  1.6 km/h 84 % 0 in /  0.0 mm
02:22 52.3 °F /  11.3 °C 48 °F /  8.9 °C 30.1 in /  1018.2 hPa Calm   1 mph /  1.6 km/h 85 % 0 in /  0.0 mm
02:32 52 °F /  11.1 °C 47.3 °F /  8.5 °C 30.1 in /  1018.2 hPa Calm   1 mph /  1.6 km/h 84 % 0 in /  0.0 mm
02:37 52 °F /  11.1 °C 47.7 °F /  8.7 °C 30.1 in /  1017.8 hPa WNW 1 mph /  1.6 km/h 1 mph /  1.6 km/h 85 % 0 in /  0.0 mm
02:42 52 °F /  11.1 °C 47.7 °F /  8.7 °C 30.1 in /  1017.8 hPa Calm   1 mph /  1.6 km/h 85 % 0 in /  0.0 mm
02:47 52.2 °F /  11.2 °C 47.8 °F /  8.8 °C 30.1 in /  1017.8 hPa Calm   1 mph /  1.6 km/h 85 % 0 in /  0.0 mm
02:52 52.3 °F /  11.3 °C 47.3 °F /  8.5 °C 30.1 in /  1017.8 hPa Calm   1 mph /  1.6 km/h 83 % 0 in /  0.0 mm
03:02 52.5 °F /  11.4 °C 47.5 °F /  8.6 °C 30.1 in /  1017.8 hPa North 1 mph /  1.6 km/h 1 mph /  1.6 km/h 83 % 0 in /  0.0 mm
03:12 52.9 °F /  11.6 °C 47.5 °F /  8.6 °C 30.1 in /  1017.5 hPa North 1 mph /  1.6 km/h 2 mph /  3.2 km/h 82 % 0 in /  0.0 mm
03:17 52.9 °F /  11.6 °C 47.5 °F /  8.6 °C 30.1 in /  1017.5 hPa Calm   2 mph /  3.2 km/h 82 % 0 in /  0.0 mm
03:22 52.7 °F /  11.5 °C 47.3 °F /  8.5 °C 30.1 in /  1017.5 hPa North 1 mph /  1.6 km/h 2 mph /  3.2 km/h 82 % 0 in /  0.0 mm
03:32 52.5 °F /  11.4 °C 47.1 °F /  8.4 °C 30.1 in /  1017.5 hPa Calm   3 mph /  4.8 km/h 82 % 0 in /  0.0 mm
03:42 52.5 °F /  11.4 °C 47.5 °F /  8.6 °C 30.1 in /  1017.5 hPa Calm   2 mph /  3.2 km/h 83 % 0 in /  0.0 mm
03:52 52.5 °F /  11.4 °C 47.1 °F /  8.4 °C 30 in /  1017.2 hPa Calm   2 mph /  3.2 km/h 82 % 0 in /  0.0 mm
03:57 52.5 °F /  11.4 °C 47.1 °F /  8.4 °C 30 in /  1017.2 hPa NNE 1 mph /  1.6 km/h 2 mph /  3.2 km/h 82 % 0 in /  0.0 mm
04:02 52.5 °F /  11.4 °C 46.9 °F /  8.3 °C 30 in /  1017.2 hPa North 2 mph /  3.2 km/h 2 mph /  3.2 km/h 81 % 0 in /  0.0 mm
04:07 52.3 °F /  11.3 °C 46.8 °F /  8.2 °C 30 in /  1017.2 hPa NNE 1 mph /  1.6 km/h 3 mph /  4.8 km/h 81 % 0 in /  0.0 mm
04:12 52.2 °F /  11.2 °C 46.8 °F /  8.2 °C 30 in /  1017.2 hPa NNE 1 mph /  1.6 km/h 3 mph /  4.8 km/h 82 % 0 in /  0.0 mm
04:17 51.6 °F /  10.9 °C 46.2 °F /  7.9 °C 30 in /  1017.2 hPa Calm   4 mph /  6.4 km/h 82 % 0 in /  0.0 mm
04:22 51.1 °F /  10.6 °C 46.4 °F /  8.0 °C 30 in /  1017.2 hPa Calm   4 mph /  6.4 km/h 84 % 0 in /  0.0 mm
04:32 50.7 °F /  10.4 °C 46.4 °F /  8.0 °C 30 in /  1017.2 hPa Calm   2 mph /  3.2 km/h 85 % 0 in /  0.0 mm
04:37 50.7 °F /  10.4 °C 46.4 °F /  8.0 °C 30 in /  1017.2 hPa Calm     85 % 0 in /  0.0 mm
04:42 50.7 °F /  10.4 °C 46.8 °F /  8.2 °C 30 in /  1017.2 hPa Calm     86 % 0 in /  0.0 mm
04:47 50.7 °F /  10.4 °C 46.8 °F /  8.2 °C 30 in /  1017.2 hPa Calm     86 % 0 in /  0.0 mm
04:52 50.7 °F /  10.4 °C 46.8 °F /  8.2 °C 30 in /  1017.2 hPa Calm     86 % 0 in /  0.0 mm
05:02 50.4 °F /  10.2 °C 46.4 °F /  8.0 °C 30 in /  1016.8 hPa Calm     86 % 0 in /  0.0 mm
05:12 50.2 °F /  10.1 °C 46.2 °F /  7.9 °C 30 in /  1016.8 hPa Calm     86 % 0 in /  0.0 mm
05:17 50.2 °F /  10.1 °C 46.4 °F /  8.0 °C 30 in /  1016.8 hPa Calm     87 % 0 in /  0.0 mm
05:22 50.4 °F /  10.2 °C 46.4 °F /  8.0 °C 30 in /  1016.8 hPa Calm     86 % 0 in /  0.0 mm
05:32 50.4 °F /  10.2 °C 46.4 °F /  8.0 °C 30 in /  1016.8 hPa Calm     86 % 0 in /  0.0 mm
05:37 50.2 °F /  10.1 °C 46.2 °F /  7.9 °C 30 in /  1016.8 hPa Calm     86 % 0 in /  0.0 mm
05:42 50.4 °F /  10.2 °C 46.6 °F /  8.1 °C 30 in /  1016.8 hPa Calm     87 % 0 in /  0.0 mm
05:47 50.4 °F /  10.2 °C 46.4 °F /  8.0 °C 30 in /  1016.8 hPa Calm     86 % 0 in /  0.0 mm
05:52 50.2 °F /  10.1 °C 46.2 °F /  7.9 °C 30 in /  1016.8 hPa Calm     86 % 0 in /  0.0 mm
06:02 50 °F /  10.0 °C 46.2 °F /  7.9 °C 30 in /  1016.8 hPa NNW 1 mph /  1.6 km/h   87 % 0 in /  0.0 mm
06:07 49.8 °F /  9.9 °C 46 °F /  7.8 °C 30 in /  1016.8 hPa North 1 mph /  1.6 km/h 2 mph /  3.2 km/h 87 % 0 in /  0.0 mm
06:12 49.5 °F /  9.7 °C 45.7 °F /  7.6 °C 30 in /  1016.8 hPa Calm   2 mph /  3.2 km/h 87 % 0 in /  0.0 mm
06:17 49.5 °F /  9.7 °C 46 °F /  7.8 °C 30 in /  1016.8 hPa Calm   2 mph /  3.2 km/h 88 % 0 in /  0.0 mm
06:22 49.3 °F /  9.6 °C 45.9 °F /  7.7 °C 30 in /  1016.8 hPa Calm   2 mph /  3.2 km/h 88 % 0 in /  0.0 mm
06:32 49.8 °F /  9.9 °C 46.4 °F /  8.0 °C 30 in /  1017.2 hPa Calm   1 mph /  1.6 km/h 88 % 0 in /  0.0 mm
06:42 50.2 °F /  10.1 °C 46.8 °F /  8.2 °C 30 in /  1017.2 hPa Calm   1 mph /  1.6 km/h 88 % 0 in /  0.0 mm
06:47 50.9 °F /  10.5 °C 47.5 °F /  8.6 °C 30 in /  1017.2 hPa Calm   1 mph /  1.6 km/h 88 % 0 in /  0.0 mm
06:52 51.6 °F /  10.9 °C 47.3 °F /  8.5 °C 30 in /  1017.2 hPa Calm   1 mph /  1.6 km/h 85 % 0 in /  0.0 mm
07:02 52.3 °F /  11.3 °C 47.7 °F /  8.7 °C 30 in /  1017.2 hPa Calm   2 mph /  3.2 km/h 84 % 0 in /  0.0 mm
07:12 52.5 °F /  11.4 °C 47.5 °F /  8.6 °C 30 in /  1017.2 hPa Calm   2 mph /  3.2 km/h 83 % 0 in /  0.0 mm
07:17 52.5 °F /  11.4 °C 47.8 °F /  8.8 °C 30 in /  1017.2 hPa North 1 mph /  1.6 km/h 2 mph /  3.2 km/h 84 % 0 in /  0.0 mm
07:22 53.1 °F /  11.7 °C 48.4 °F /  9.1 °C 30 in /  1017.2 hPa Calm   2 mph /  3.2 km/h 84 % 0 in /  0.0 mm
07:32 54.1 °F /  12.3 °C 48.4 °F /  9.1 °C 30 in /  1017.2 hPa NNE 1 mph /  1.6 km/h 2 mph /  3.2 km/h 81 % 0 in /  0.0 mm
07:42 54.7 °F /  12.6 °C 48.9 °F /  9.4 °C 30 in /  1017.2 hPa NNE 1 mph /  1.6 km/h 2 mph /  3.2 km/h 81 % 0 in /  0.0 mm
07:47 54.7 °F /  12.6 °C 48.9 °F /  9.4 °C 30 in /  1017.2 hPa NE 1 mph /  1.6 km/h 3 mph /  4.8 km/h 81 % 0 in /  0.0 mm
07:52 54.9 °F /  12.7 °C 49.5 °F /  9.7 °C 30 in /  1017.2 hPa NE 2 mph /  3.2 km/h 3 mph /  4.8 km/h 82 % 0 in /  0.0 mm
07:57 55 °F /  12.8 °C 50 °F /  10.0 °C 30 in /  1017.2 hPa NE 3 mph /  4.8 km/h 3 mph /  4.8 km/h 83 % 0 in /  0.0 mm
08:02 55.2 °F /  12.9 °C 50.2 °F /  10.1 °C 30 in /  1017.2 hPa Calm   3 mph /  4.8 km/h 83 % 0 in /  0.0 mm
08:12 55.9 °F /  13.3 °C 50.9 °F /  10.5 °C 30 in /  1016.8 hPa NE 2 mph /  3.2 km/h 5 mph /  8.0 km/h 83 % 0 in /  0.0 mm
08:22 56.8 °F /  13.8 °C 51.4 °F /  10.8 °C 30 in /  1017.2 hPa Calm   4 mph /  6.4 km/h 82 % 0 in /  0.0 mm
08:32 58.5 °F /  14.7 °C 52.3 °F /  11.3 °C 30 in /  1017.2 hPa Calm   3 mph /  4.8 km/h 80 % 0 in /  0.0 mm
08:37 59 °F /  15.0 °C 51.8 °F /  11.0 °C 30 in /  1017.2 hPa Calm   1 mph /  1.6 km/h 77 % 0 in /  0.0 mm
08:42 59.2 °F /  15.1 °C 52.3 °F /  11.3 °C 30 in /  1017.2 hPa NE 1 mph /  1.6 km/h 1 mph /  1.6 km/h 78 % 0 in /  0.0 mm
08:52 60.4 °F /  15.8 °C 52.9 °F /  11.6 °C 30 in /  1017.2 hPa East 1 mph /  1.6 km/h 2 mph /  3.2 km/h 76 % 0 in /  0.0 mm
09:02 61.7 °F /  16.5 °C 53.8 °F /  12.1 °C 30 in /  1017.2 hPa Calm   5 mph /  8.0 km/h 75 % 0 in /  0.0 mm
09:12 62.8 °F /  17.1 °C 52.5 °F /  11.4 °C 30 in /  1017.2 hPa East 2 mph /  3.2 km/h 4 mph /  6.4 km/h 69 % 0 in /  0.0 mm
09:17 62.6 °F /  17.0 °C 53.4 °F /  11.9 °C 30.1 in /  1017.5 hPa Calm   4 mph /  6.4 km/h 72 % 0 in /  0.0 mm
09:22 63 °F /  17.2 °C 53.4 °F /  11.9 °C 30.1 in /  1017.5 hPa Calm   4 mph /  6.4 km/h 71 % 0 in /  0.0 mm
09:32 64 °F /  17.8 °C 54.1 °F /  12.3 °C 30.1 in /  1017.5 hPa SSE 1 mph /  1.6 km/h 4 mph /  6.4 km/h 70 % 0 in /  0.0 mm
09:42 63.9 °F /  17.7 °C 54 °F /  12.2 °C 30.1 in /  1017.5 hPa ESE 2 mph /  3.2 km/h 3 mph /  4.8 km/h 70 % 0 in /  0.0 mm
09:47 64 °F /  17.8 °C 55.2 °F /  12.9 °C 30.1 in /  1017.5 hPa Calm   4 mph /  6.4 km/h 73 % 0 in /  0.0 mm
09:52 64.8 °F /  18.2 °C 55.2 °F /  12.9 °C 30.1 in /  1017.5 hPa SE 2 mph /  3.2 km/h 4 mph /  6.4 km/h 71 % 0 in /  0.0 mm
09:57 65.1 °F /  18.4 °C 54.3 °F /  12.4 °C 30.1 in /  1017.5 hPa South 2 mph /  3.2 km/h 4 mph /  6.4 km/h 68 % 0 in /  0.0 mm
10:02 65.3 °F /  18.5 °C 54.1 °F /  12.3 °C 30.1 in /  1017.5 hPa South 3 mph /  4.8 km/h 4 mph /  6.4 km/h 67 % 0 in /  0.0 mm
10:12 65.1 °F /  18.4 °C 54 °F /  12.2 °C 30.1 in /  1017.5 hPa SSW 1 mph /  1.6 km/h 5 mph /  8.0 km/h 67 % 0 in /  0.0 mm
10:17 65.5 °F /  18.6 °C 54.3 °F /  12.4 °C 30 in /  1017.2 hPa South 2 mph /  3.2 km/h 6 mph /  9.7 km/h 67 % 0 in /  0.0 mm
10:22 65.5 °F /  18.6 °C 53.4 °F /  11.9 °C 30.1 in /  1017.5 hPa South 2 mph /  3.2 km/h 6 mph /  9.7 km/h 65 % 0 in /  0.0 mm
10:32 65.8 °F /  18.8 °C 54.5 °F /  12.5 °C 30 in /  1017.2 hPa WSW 3 mph /  4.8 km/h 7 mph /  11.3 km/h 67 % 0 in /  0.0 mm
10:42 66.6 °F /  19.2 °C 55.2 °F /  12.9 °C 30 in /  1017.2 hPa SSW 1 mph /  1.6 km/h 8 mph /  12.9 km/h 67 % 0 in /  0.0 mm
10:52 67.1 °F /  19.5 °C 54.9 °F /  12.7 °C 30 in /  1017.2 hPa SSW 2 mph /  3.2 km/h 6 mph /  9.7 km/h 65 % 0 in /  0.0 mm
10:57 67.5 °F /  19.7 °C 55.8 °F /  13.2 °C 30 in /  1017.2 hPa ESE 2 mph /  3.2 km/h 5 mph /  8.0 km/h 66 % 0 in /  0.0 mm
11:02 67.8 °F /  19.9 °C 56.5 °F /  13.6 °C 30 in /  1017.2 hPa Calm   5 mph /  8.0 km/h 67 % 0 in /  0.0 mm
11:12 69.1 °F /  20.6 °C 55.9 °F /  13.3 °C 30 in /  1017.2 hPa Calm   6 mph /  9.7 km/h 63 % 0 in /  0.0 mm
11:22 69.6 °F /  20.9 °C 55.9 °F /  13.3 °C 30 in /  1017.2 hPa SSE 1 mph /  1.6 km/h 5 mph /  8.0 km/h 62 % 0 in /  0.0 mm
11:32 70 °F /  21.1 °C 55 °F /  12.8 °C 30 in /  1017.2 hPa SSW 2 mph /  3.2 km/h 5 mph /  8.0 km/h 59 % 0 in /  0.0 mm
11:42 70.9 °F /  21.6 °C 57.2 °F /  14.0 °C 30 in /  1016.8 hPa SW 4 mph /  6.4 km/h 7 mph /  11.3 km/h 62 % 0 in /  0.0 mm
11:47 70.9 °F /  21.6 °C 56.3 °F /  13.5 °C 30 in /  1016.8 hPa South 1 mph /  1.6 km/h 7 mph /  11.3 km/h 60 % 0 in /  0.0 mm
11:52 71.2 °F /  21.8 °C 56.7 °F /  13.7 °C 30 in /  1016.8 hPa SSW 2 mph /  3.2 km/h 7 mph /  11.3 km/h 60 % 0 in /  0.0 mm
12:02 71.8 °F /  22.1 °C 57.2 °F /  14.0 °C 30 in /  1016.8 hPa Calm   6 mph /  9.7 km/h 60 % 0 in /  0.0 mm
12:12 72.1 °F /  22.3 °C 59.4 °F /  15.2 °C 30 in /  1017.2 hPa ESE 1 mph /  1.6 km/h 4 mph /  6.4 km/h 64 % 0 in /  0.0 mm
12:17 72.5 °F /  22.5 °C 56.5 °F /  13.6 °C 30 in /  1017.2 hPa SW 5 mph /  8.0 km/h 5 mph /  8.0 km/h 57 % 0 in /  0.0 mm
12:22 72.3 °F /  22.4 °C 57.2 °F /  14.0 °C 30 in /  1017.2 hPa Calm   4 mph /  6.4 km/h 59 % 0 in /  0.0 mm
12:32 73 °F /  22.8 °C 56.5 °F /  13.6 °C 30 in /  1017.2 hPa SSW 2 mph /  3.2 km/h 6 mph /  9.7 km/h 56 % 0 in /  0.0 mm
12:42 73.2 °F /  22.9 °C 56.1 °F /  13.4 °C 30 in /  1017.2 hPa SSW 4 mph /  6.4 km/h 8 mph /  12.9 km/h 55 % 0 in /  0.0 mm
12:47 73.4 °F /  23.0 °C 55.8 °F /  13.2 °C 30 in /  1017.2 hPa SSW 1 mph /  1.6 km/h 8 mph /  12.9 km/h 54 % 0 in /  0.0 mm
12:52 73.8 °F /  23.2 °C 57.6 °F /  14.2 °C 30 in /  1017.2 hPa SSW 1 mph /  1.6 km/h 8 mph /  12.9 km/h 57 % 0 in /  0.0 mm
12:57 74.1 °F /  23.4 °C 57.4 °F /  14.1 °C 30 in /  1017.2 hPa WSW 2 mph /  3.2 km/h 5 mph /  8.0 km/h 56 % 0 in /  0.0 mm
13:02 73.4 °F /  23.0 °C 56.3 °F /  13.5 °C 30 in /  1017.2 hPa SW 4 mph /  6.4 km/h 5 mph /  8.0 km/h 55 % 0 in /  0.0 mm
13:12 73.9 °F /  23.3 °C 56.3 °F /  13.5 °C 30 in /  1017.2 hPa SSW 1 mph /  1.6 km/h 7 mph /  11.3 km/h 54 % 0 in /  0.0 mm
13:17 75 °F /  23.9 °C 57.2 °F /  14.0 °C 30 in /  1017.2 hPa SSW 1 mph /  1.6 km/h 6 mph /  9.7 km/h 54 % 0 in /  0.0 mm
13:22 75.4 °F /  24.1 °C 57 °F /  13.9 °C 30 in /  1017.2 hPa Calm   6 mph /  9.7 km/h 53 % 0 in /  0.0 mm
13:27 74.7 °F /  23.7 °C 56.8 °F /  13.8 °C 30 in /  1017.2 hPa Calm   4 mph /  6.4 km/h 54 % 0 in /  0.0 mm
13:32 74.8 °F /  23.8 °C 55 °F /  12.8 °C 30 in /  1017.2 hPa Calm   4 mph /  6.4 km/h 50 % 0 in /  0.0 mm
13:37 74.8 °F /  23.8 °C 56.1 °F /  13.4 °C 30 in /  1017.2 hPa SSW 6 mph /  9.7 km/h 6 mph /  9.7 km/h 52 % 0 in /  0.0 mm
13:42 74.8 °F /  23.8 °C 57 °F /  13.9 °C 30 in /  1017.2 hPa East 3 mph /  4.8 km/h 6 mph /  9.7 km/h 54 % 0 in /  0.0 mm
13:52 75.6 °F /  24.2 °C 58.3 °F /  14.6 °C 30 in /  1017.2 hPa SSE 2 mph /  3.2 km/h 7 mph /  11.3 km/h 55 % 0 in /  0.0 mm
13:57 75.7 °F /  24.3 °C 54.7 °F /  12.6 °C 30 in /  1017.2 hPa South 4 mph /  6.4 km/h 5 mph /  8.0 km/h 48 % 0 in /  0.0 mm
14:02 75.4 °F /  24.1 °C 55.4 °F /  13.0 °C 30 in /  1017.2 hPa WSW 1 mph /  1.6 km/h 5 mph /  8.0 km/h 50 % 0 in /  0.0 mm
14:07 75.4 °F /  24.1 °C 54.9 °F /  12.7 °C 30 in /  1017.2 hPa WSW 5 mph /  8.0 km/h 7 mph /  11.3 km/h 49 % 0 in /  0.0 mm
14:12 75.6 °F /  24.2 °C 55 °F /  12.8 °C 30 in /  1017.2 hPa SSW 8 mph /  12.9 km/h 8 mph /  12.9 km/h 49 % 0 in /  0.0 mm
14:17 75.6 °F /  24.2 °C 54.5 °F /  12.5 °C 30 in /  1017.2 hPa SSW 6 mph /  9.7 km/h 9 mph /  14.5 km/h 48 % 0 in /  0.0 mm
14:22 76.1 °F /  24.5 °C 57.2 °F /  14.0 °C 30 in /  1017.2 hPa South 1 mph /  1.6 km/h 9 mph /  14.5 km/h 52 % 0 in /  0.0 mm
14:27 76.3 °F /  24.6 °C 56.8 °F /  13.8 °C 30 in /  1017.2 hPa South 1 mph /  1.6 km/h 9 mph /  14.5 km/h 51 % 0 in /  0.0 mm
14:32 76.6 °F /  24.8 °C 57.2 °F /  14.0 °C 30 in /  1017.2 hPa SW 4 mph /  6.4 km/h 9 mph /  14.5 km/h 51 % 0 in /  0.0 mm
14:37 76.5 °F /  24.7 °C 56.5 °F /  13.6 °C 30 in /  1017.2 hPa SW 6 mph /  9.7 km/h 8 mph /  12.9 km/h 50 % 0 in /  0.0 mm
14:42 76.5 °F /  24.7 °C 55.9 °F /  13.3 °C 30 in /  1017.2 hPa WSW 7 mph /  11.3 km/h 8 mph /  12.9 km/h 49 % 0 in /  0.0 mm
14:47 76.6 °F /  24.8 °C 54.3 °F /  12.4 °C 30 in /  1017.2 hPa SW 4 mph /  6.4 km/h 10 mph /  16.1 km/h 46 % 0 in /  0.0 mm
14:52 77.2 °F /  25.1 °C 54.9 °F /  12.7 °C 30 in /  1017.2 hPa WSW 4 mph /  6.4 km/h 10 mph /  16.1 km/h 46 % 0 in /  0.0 mm
14:57 77.4 °F /  25.2 °C 56.1 °F /  13.4 °C 30 in /  1017.2 hPa SSW 3 mph /  4.8 km/h 10 mph /  16.1 km/h 48 % 0 in /  0.0 mm
15:02 77.4 °F /  25.2 °C 53.1 °F /  11.7 °C 30 in /  1017.2 hPa South 3 mph /  4.8 km/h 10 mph /  16.1 km/h 43 % 0 in /  0.0 mm
15:12 77 °F /  25.0 °C 53.4 °F /  11.9 °C 30 in /  1017.2 hPa SSW 2 mph /  3.2 km/h 10 mph /  16.1 km/h 44 % 0 in /  0.0 mm
15:17 77.2 °F /  25.1 °C 55.4 °F /  13.0 °C 30 in /  1017.2 hPa SE 1 mph /  1.6 km/h 7 mph /  11.3 km/h 47 % 0 in /  0.0 mm
15:22 77.5 °F /  25.3 °C 55 °F /  12.8 °C 30 in /  1017.2 hPa WSW 1 mph /  1.6 km/h 7 mph /  11.3 km/h 46 % 0 in /  0.0 mm
15:32 77.5 °F /  25.3 °C 54 °F /  12.2 °C 30 in /  1016.8 hPa WSW 2 mph /  3.2 km/h 7 mph /  11.3 km/h 44 % 0 in /  0.0 mm
15:37 77.4 °F /  25.2 °C 53.1 °F /  11.7 °C 30 in /  1016.8 hPa West 2 mph /  3.2 km/h 7 mph /  11.3 km/h 43 % 0 in /  0.0 mm
15:42 77.5 °F /  25.3 °C 53.2 °F /  11.8 °C 30 in /  1016.8 hPa Calm   7 mph /  11.3 km/h 43 % 0 in /  0.0 mm
15:47 78.3 °F /  25.7 °C 54.5 °F /  12.5 °C 30 in /  1016.8 hPa Calm   8 mph /  12.9 km/h 44 % 0 in /  0.0 mm
15:52 78.6 °F /  25.9 °C 52.9 °F /  11.6 °C 30 in /  1016.8 hPa SW 5 mph /  8.0 km/h 8 mph /  12.9 km/h 41 % 0 in /  0.0 mm
15:57 78.3 °F /  25.7 °C 52 °F /  11.1 °C 30 in /  1016.8 hPa SW 4 mph /  6.4 km/h 7 mph /  11.3 km/h 40 % 0 in /  0.0 mm
16:02 78.3 °F /  25.7 °C 52.7 °F /  11.5 °C 30 in /  1016.8 hPa WSW 1 mph /  1.6 km/h 7 mph /  11.3 km/h 41 % 0 in /  0.0 mm
16:07 79.2 °F /  26.2 °C 52.2 °F /  11.2 °C 30 in /  1016.8 hPa SW 2 mph /  3.2 km/h 8 mph /  12.9 km/h 39 % 0 in /  0.0 mm
16:12 78.8 °F /  26.0 °C 53.8 °F /  12.1 °C 30 in /  1016.8 hPa SW 2 mph /  3.2 km/h 8 mph /  12.9 km/h 42 % 0 in /  0.0 mm
16:17 78.6 °F /  25.9 °C 50.2 °F /  10.1 °C 30 in /  1016.8 hPa West 4 mph /  6.4 km/h 8 mph /  12.9 km/h 37 % 0 in /  0.0 mm
16:22 78.1 °F /  25.6 °C 51.1 °F /  10.6 °C 30 in /  1016.8 hPa SSW 1 mph /  1.6 km/h 8 mph /  12.9 km/h 39 % 0 in /  0.0 mm
16:32 78.3 °F /  25.7 °C 52.7 °F /  11.5 °C 30 in /  1016.8 hPa SSW 2 mph /  3.2 km/h 8 mph /  12.9 km/h 41 % 0 in /  0.0 mm
16:37 78.8 °F /  26.0 °C 53.1 °F /  11.7 °C 30 in /  1016.8 hPa SE 4 mph /  6.4 km/h 9 mph /  14.5 km/h 41 % 0 in /  0.0 mm
16:42 78.6 °F /  25.9 °C 52.3 °F /  11.3 °C 30 in /  1016.8 hPa WSW 3 mph /  4.8 km/h 9 mph /  14.5 km/h 40 % 0 in /  0.0 mm
16:52 78.8 °F /  26.0 °C 53.8 °F /  12.1 °C 30 in /  1016.8 hPa WNW 2 mph /  3.2 km/h 9 mph /  14.5 km/h 42 % 0 in /  0.0 mm
17:02 78.8 °F /  26.0 °C 53.1 °F /  11.7 °C 30 in /  1016.8 hPa West 4 mph /  6.4 km/h 8 mph /  12.9 km/h 41 % 0 in /  0.0 mm
17:12 79 °F /  26.1 °C 53.2 °F /  11.8 °C 30 in /  1016.8 hPa SW 4 mph /  6.4 km/h 8 mph /  12.9 km/h 41 % 0 in /  0.0 mm
17:17 79 °F /  26.1 °C 53.2 °F /  11.8 °C 30 in /  1016.8 hPa SW 2 mph /  3.2 km/h 11 mph /  17.7 km/h 41 % 0 in /  0.0 mm
17:22 79.2 °F /  26.2 °C 53.4 °F /  11.9 °C 30 in /  1016.8 hPa West 4 mph /  6.4 km/h 11 mph /  17.7 km/h 41 % 0 in /  0.0 mm
17:27 79.5 °F /  26.4 °C 55 °F /  12.8 °C 30 in /  1016.8 hPa WSW 5 mph /  8.0 km/h 10 mph /  16.1 km/h 43 % 0 in /  0.0 mm
17:32 79.2 °F /  26.2 °C 53.4 °F /  11.9 °C 30 in /  1016.8 hPa WSW 4 mph /  6.4 km/h 10 mph /  16.1 km/h 41 % 0 in /  0.0 mm
17:42 79.5 °F /  26.4 °C 55 °F /  12.8 °C 30 in /  1016.8 hPa WSW 3 mph /  4.8 km/h 7 mph /  11.3 km/h 43 % 0 in /  0.0 mm
17:47 79.9 °F /  26.6 °C 54.1 °F /  12.3 °C 30 in /  1016.8 hPa SW 3 mph /  4.8 km/h 8 mph /  12.9 km/h 41 % 0 in /  0.0 mm
17:52 79.2 °F /  26.2 °C 54.7 °F /  12.6 °C 30 in /  1016.5 hPa SW 6 mph /  9.7 km/h 8 mph /  12.9 km/h 43 % 0 in /  0.0 mm
17:57 79.2 °F /  26.2 °C 54.7 °F /  12.6 °C 30 in /  1016.5 hPa SSW 6 mph /  9.7 km/h 8 mph /  12.9 km/h 43 % 0 in /  0.0 mm
18:02 79.2 °F /  26.2 °C 55.9 °F /  13.3 °C 30 in /  1016.5 hPa SSW 2 mph /  3.2 km/h 8 mph /  12.9 km/h 45 % 0 in /  0.0 mm
18:12 79.2 °F /  26.2 °C 54.1 °F /  12.3 °C 30 in /  1016.5 hPa WSW 4 mph /  6.4 km/h 9 mph /  14.5 km/h 42 % 0 in /  0.0 mm
18:17 79 °F /  26.1 °C 54 °F /  12.2 °C 30 in /  1016.5 hPa SW 6 mph /  9.7 km/h 9 mph /  14.5 km/h 42 % 0 in /  0.0 mm
18:22 79 °F /  26.1 °C 55.2 °F /  12.9 °C 30 in /  1016.5 hPa SW 6 mph /  9.7 km/h 8 mph /  12.9 km/h 44 % 0 in /  0.0 mm
18:27 79 °F /  26.1 °C 54.5 °F /  12.5 °C 30 in /  1016.5 hPa WNW 2 mph /  3.2 km/h 8 mph /  12.9 km/h 43 % 0 in /  0.0 mm
18:37 78.6 °F /  25.9 °C 54.9 °F /  12.7 °C 30 in /  1016.5 hPa WSW 4 mph /  6.4 km/h 7 mph /  11.3 km/h 44 % 0 in /  0.0 mm
18:42 78.4 °F /  25.8 °C 55.4 °F /  13.0 °C 30 in /  1016.5 hPa West 4 mph /  6.4 km/h 6 mph /  9.7 km/h 45 % 0 in /  0.0 mm
18:47 78.1 °F /  25.6 °C 53.8 °F /  12.1 °C 30 in /  1016.5 hPa WSW 3 mph /  4.8 km/h 7 mph /  11.3 km/h 43 % 0 in /  0.0 mm
18:52 77.5 °F /  25.3 °C 53.2 °F /  11.8 °C 30 in /  1016.5 hPa WNW 2 mph /  3.2 km/h 7 mph /  11.3 km/h 43 % 0 in /  0.0 mm
18:57 77.7 °F /  25.4 °C 54.1 °F /  12.3 °C 30 in /  1016.5 hPa West 2 mph /  3.2 km/h 7 mph /  11.3 km/h 44 % 0 in /  0.0 mm
19:02 77.9 °F /  25.5 °C 54.3 °F /  12.4 °C 30 in /  1016.5 hPa WNW 2 mph /  3.2 km/h 7 mph /  11.3 km/h 44 % 0 in /  0.0 mm
19:07 77.9 °F /  25.5 °C 54.3 °F /  12.4 °C 30 in /  1016.5 hPa West 2 mph /  3.2 km/h 6 mph /  9.7 km/h 44 % 0 in /  0.0 mm
19:12 77.9 °F /  25.5 °C 54.3 °F /  12.4 °C 30 in /  1016.5 hPa WSW 5 mph /  8.0 km/h 6 mph /  9.7 km/h 44 % 0 in /  0.0 mm
19:17 77.7 °F /  25.4 °C 54.7 °F /  12.6 °C 30 in /  1016.5 hPa WNW 2 mph /  3.2 km/h 6 mph /  9.7 km/h 45 % 0 in /  0.0 mm
19:22 77.4 °F /  25.2 °C 53.1 °F /  11.7 °C 30 in /  1016.5 hPa WSW 3 mph /  4.8 km/h 6 mph /  9.7 km/h 43 % 0 in /  0.0 mm
19:32 77.2 °F /  25.1 °C 55.4 °F /  13.0 °C 30 in /  1016.5 hPa WNW 4 mph /  6.4 km/h 6 mph /  9.7 km/h 47 % 0 in /  0.0 mm
19:37 77.2 °F /  25.1 °C 55.9 °F /  13.3 °C 30 in /  1016.5 hPa SW 1 mph /  1.6 km/h 6 mph /  9.7 km/h 48 % 0 in /  0.0 mm
19:42 77.2 °F /  25.1 °C 55.9 °F /  13.3 °C 30 in /  1016.5 hPa West 2 mph /  3.2 km/h 6 mph /  9.7 km/h 48 % 0 in /  0.0 mm
19:52 77.5 °F /  25.3 °C 57.4 °F /  14.1 °C 30 in /  1016.5 hPa West 1 mph /  1.6 km/h 4 mph /  6.4 km/h 50 % 0 in /  0.0 mm
19:57 77.5 °F /  25.3 °C 56.8 °F /  13.8 °C 30 in /  1016.5 hPa WNW 1 mph /  1.6 km/h 3 mph /  4.8 km/h 49 % 0 in /  0.0 mm
20:02 77.7 °F /  25.4 °C 56.5 °F /  13.6 °C 30 in /  1016.5 hPa WNW 1 mph /  1.6 km/h 3 mph /  4.8 km/h 48 % 0 in /  0.0 mm
20:12 77.7 °F /  25.4 °C 56.5 °F /  13.6 °C 30 in /  1016.5 hPa West 1 mph /  1.6 km/h 4 mph /  6.4 km/h 48 % 0 in /  0.0 mm
20:17 77.7 °F /  25.4 °C 57 °F /  13.9 °C 30 in /  1016.8 hPa Calm   4 mph /  6.4 km/h 49 % 0 in /  0.0 mm
20:22 77.9 °F /  25.5 °C 56.7 °F /  13.7 °C 30 in /  1016.8 hPa WNW 1 mph /  1.6 km/h 4 mph /  6.4 km/h 48 % 0 in /  0.0 mm
20:32 77.2 °F /  25.1 °C 57 °F /  13.9 °C 30 in /  1016.8 hPa Calm   3 mph /  4.8 km/h 50 % 0 in /  0.0 mm
20:37 76.5 °F /  24.7 °C 58.1 °F /  14.5 °C 30 in /  1016.8 hPa SW 2 mph /  3.2 km/h 2 mph /  3.2 km/h 53 % 0 in /  0.0 mm
20:42 75.6 °F /  24.2 °C 57.2 °F /  14.0 °C 30 in /  1016.8 hPa SW 4 mph /  6.4 km/h 4 mph /  6.4 km/h 53 % 0 in /  0.0 mm
20:47 74.7 °F /  23.7 °C 58.8 °F /  14.9 °C 30 in /  1016.8 hPa West 2 mph /  3.2 km/h 7 mph /  11.3 km/h 58 % 0 in /  0.0 mm
20:52 73.8 °F /  23.2 °C 59.9 °F /  15.5 °C 30 in /  1016.8 hPa SW 5 mph /  8.0 km/h 7 mph /  11.3 km/h 62 % 0 in /  0.0 mm
20:57 73.2 °F /  22.9 °C 60.3 °F /  15.7 °C 30 in /  1016.8 hPa SW 2 mph /  3.2 km/h 8 mph /  12.9 km/h 64 % 0 in /  0.0 mm
21:02 72.9 °F /  22.7 °C 60.4 °F /  15.8 °C 30 in /  1016.8 hPa SW 4 mph /  6.4 km/h 8 mph /  12.9 km/h 65 % 0 in /  0.0 mm
21:07 72.7 °F /  22.6 °C 60.6 °F /  15.9 °C 30 in /  1016.8 hPa SSW 3 mph /  4.8 km/h 9 mph /  14.5 km/h 66 % 0 in /  0.0 mm
21:12 72.1 °F /  22.3 °C 60.6 °F /  15.9 °C 30 in /  1017.2 hPa SW 4 mph /  6.4 km/h 9 mph /  14.5 km/h 67 % 0 in /  0.0 mm
21:17 71.8 °F /  22.1 °C 60.6 °F /  15.9 °C 30 in /  1017.2 hPa SW 5 mph /  8.0 km/h 9 mph /  14.5 km/h 68 % 0 in /  0.0 mm
21:27 70.9 °F /  21.6 °C 61 °F /  16.1 °C 30 in /  1017.2 hPa WSW 8 mph /  12.9 km/h 8 mph /  12.9 km/h 71 % 0 in /  0.0 mm
21:32 70.5 °F /  21.4 °C 61 °F /  16.1 °C 30 in /  1017.2 hPa WSW 4 mph /  6.4 km/h 8 mph /  12.9 km/h 72 % 0 in /  0.0 mm
21:37 70 °F /  21.1 °C 61 °F /  16.1 °C 30 in /  1017.2 hPa WSW 3 mph /  4.8 km/h 8 mph /  12.9 km/h 73 % 0 in /  0.0 mm
21:42 69.4 °F /  20.8 °C 60.8 °F /  16.0 °C 30 in /  1017.2 hPa West 3 mph /  4.8 km/h 8 mph /  12.9 km/h 74 % 0 in /  0.0 mm
21:47 69.1 °F /  20.6 °C 60.8 °F /  16.0 °C 30.1 in /  1017.5 hPa SW 3 mph /  4.8 km/h 6 mph /  9.7 km/h 75 % 0 in /  0.0 mm
21:52 68.7 °F /  20.4 °C 60.8 °F /  16.0 °C 30.1 in /  1017.5 hPa WSW 3 mph /  4.8 km/h 6 mph /  9.7 km/h 76 % 0 in /  0.0 mm
22:02 68.2 °F /  20.1 °C 60.6 °F /  15.9 °C 30.1 in /  1017.8 hPa West 2 mph /  3.2 km/h 6 mph /  9.7 km/h 77 % 0 in /  0.0 mm
22:12 67.8 °F /  19.9 °C 60.6 °F /  15.9 °C 30.1 in /  1017.8 hPa West 1 mph /  1.6 km/h 5 mph /  8.0 km/h 78 % 0 in /  0.0 mm
22:17 67.6 °F /  19.8 °C 60.6 °F /  15.9 °C 30.1 in /  1017.8 hPa West 3 mph /  4.8 km/h 4 mph /  6.4 km/h 78 % 0 in /  0.0 mm
22:22 67.5 °F /  19.7 °C 60.4 °F /  15.8 °C 30.1 in /  1017.8 hPa SW 2 mph /  3.2 km/h 4 mph /  6.4 km/h 78 % 0 in /  0.0 mm
22:27 67.3 °F /  19.6 °C 60.3 °F /  15.7 °C 30.1 in /  1017.8 hPa WSW 2 mph /  3.2 km/h 5 mph /  8.0 km/h 78 % 0 in /  0.0 mm
22:32 67.1 °F /  19.5 °C 60.4 °F /  15.8 °C 30.1 in /  1017.8 hPa West 1 mph /  1.6 km/h 5 mph /  8.0 km/h 79 % 0 in /  0.0 mm
22:42 66.6 °F /  19.2 °C 60.3 °F /  15.7 °C 30.1 in /  1018.2 hPa WSW 2 mph /  3.2 km/h 4 mph /  6.4 km/h 80 % 0 in /  0.0 mm
22:47 66.6 °F /  19.2 °C 60.3 °F /  15.7 °C 30.1 in /  1018.2 hPa WSW 1 mph /  1.6 km/h 4 mph /  6.4 km/h 80 % 0 in /  0.0 mm
22:52 66.4 °F /  19.1 °C 60.1 °F /  15.6 °C 30.1 in /  1018.2 hPa WSW 1 mph /  1.6 km/h 4 mph /  6.4 km/h 80 % 0 in /  0.0 mm
23:02 66.4 °F /  19.1 °C 59.7 °F /  15.4 °C 30.1 in /  1018.2 hPa West 3 mph /  4.8 km/h 6 mph /  9.7 km/h 79 % 0 in /  0.0 mm
23:07 66.6 °F /  19.2 °C 59.5 °F /  15.3 °C 30.1 in /  1018.5 hPa WNW 4 mph /  6.4 km/h 6 mph /  9.7 km/h 78 % 0 in /  0.0 mm
23:12 66.7 °F /  19.3 °C 59.4 °F /  15.2 °C 30.1 in /  1018.5 hPa West 3 mph /  4.8 km/h 6 mph /  9.7 km/h 77 % 0 in /  0.0 mm
23:17 66.7 °F /  19.3 °C 59 °F /  15.0 °C 30.1 in /  1018.5 hPa West 3 mph /  4.8 km/h 8 mph /  12.9 km/h 76 % 0 in /  0.0 mm
23:22 66.6 °F /  19.2 °C 58.8 °F /  14.9 °C 30.1 in /  1018.5 hPa WNW 5 mph /  8.0 km/h 8 mph /  12.9 km/h 76 % 0 in /  0.0 mm
23:32 66 °F /  18.9 °C 58.3 °F /  14.6 °C 30.1 in /  1018.5 hPa NW 5 mph /  8.0 km/h 8 mph /  12.9 km/h 76 % 0 in /  0.0 mm
23:42 65.8 °F /  18.8 °C 58.1 °F /  14.5 °C 30.1 in /  1018.5 hPa WNW 3 mph /  4.8 km/h 8 mph /  12.9 km/h 76 % 0 in /  0.0 mm
23:52 65.7 °F /  18.7 °C 58.3 °F /  14.6 °C 30.1 in /  1018.8 hPa WNW 2 mph /  3.2 km/h 8 mph /  12.9 km/h 77 % 0 in /  0.0 mm
Meteo18
Compliments of Weather Underground - 4 mb

Script developed by  Jim McMurry - jmcmurry@mwt.net Adapted for the template by  Wim van der Kuil - Leuven-Template.eu

You find our weather info also at:

European Weather Network

Weather Underground

Equipment we use:

Weather-station
Davis Vue

Weather-program
Meteohub

Weather-server
Raspberry PI 2 B+

Provider
1 and 1

Davis Vue

Meteohub

Raspberry PI 2 B+

1 and 1